Time;durP1;ratioP1;P1;durP2;ratioP2;P2;SDS_P1;SDS_P2;PMS_P1;PMS_P2;Temp;Humidity;BMP_temperature;BMP_pressure;BME280_temperature;BME280_humidity;BME280_pressure;Samples;Min_cycle;Max_cycle;Signal;HPM_P1;HPM_P2
2023/03/01 00:00:19;;;;;;;22.93;21.23;;;-1.00;99.90;;;;;;5055355;28;20467;-70
2023/03/01 00:02:46;;;;;;;24.57;22.30;;;-1.00;99.90;;;;;;5061574;28;20450;-71
2023/03/01 00:05:13;;;;;;;21.90;20.30;;;-1.00;99.90;;;;;;5054637;28;20918;-72
2023/03/01 00:07:40;;;;;;;22.33;20.63;;;-1.00;99.90;;;;;;5050493;28;20839;-72
2023/03/01 00:10:07;;;;;;;23.03;21.23;;;-1.00;99.90;;;;;;5060619;28;20473;-72
2023/03/01 00:12:36;;;;;;;24.37;22.13;;;-1.00;99.90;;;;;;5060524;28;20950;-69
2023/03/01 00:15:04;;;;;;;23.90;21.80;;;-1.00;99.90;;;;;;5059116;28;20570;-69
2023/03/01 00:17:31;;;;;;;23.23;20.90;;;-1.00;99.90;;;;;;5050888;28;20651;-69
2023/03/01 00:19:58;;;;;;;23.00;21.20;;;-1.00;99.90;;;;;;5048328;28;20459;-71
2023/03/01 00:22:27;;;;;;;24.00;21.90;;;-0.90;99.90;;;;;;5053255;28;20467;-69
2023/03/01 00:24:55;;;;;;;24.03;21.93;;;-0.90;99.90;;;;;;5060668;28;20536;-71
2023/03/01 00:27:22;;;;;;;24.17;22.20;;;-0.90;99.90;;;;;;5059475;28;20910;-70
2023/03/01 00:29:50;;;;;;;23.90;21.63;;;-0.90;99.90;;;;;;5059746;28;20455;-71
2023/03/01 00:32:17;;;;;;;24.13;21.57;;;-0.90;99.90;;;;;;5056378;28;20467;-70
2023/03/01 00:34:54;;;;;;;24.03;22.03;;;-0.90;99.90;;;;;;5060082;28;20947;-68
2023/03/01 00:37:21;;;;;;;22.73;20.93;;;-0.90;99.90;;;;;;5051995;28;20488;-68
2023/03/01 00:39:49;;;;;;;24.10;22.20;;;-0.90;99.90;;;;;;5053824;28;20574;-71
2023/03/01 00:42:16;;;;;;;22.67;20.47;;;-0.90;99.90;;;;;;5055438;28;20498;-69
2023/03/01 00:44:43;;;;;;;22.17;20.47;;;-1.00;99.90;;;;;;5060004;28;20825;-69
2023/03/01 00:47:11;;;;;;;24.40;22.17;;;-0.90;99.90;;;;;;5056892;28;20478;-70
2023/03/01 00:49:38;;;;;;;23.30;21.27;;;-0.90;99.90;;;;;;5062064;28;20471;-70
2023/03/01 00:52:05;;;;;;;22.87;20.70;;;-0.90;99.90;;;;;;5064357;28;20456;-69
2023/03/01 00:54:32;;;;;;;23.67;21.40;;;-0.80;99.90;;;;;;5059246;28;20542;-68
2023/03/01 00:57:00;;;;;;;24.27;22.17;;;-0.80;99.90;;;;;;5055172;28;20473;-71
2023/03/01 00:59:27;;;;;;;25.03;21.27;;;-0.80;99.90;;;;;;5055457;28;20466;-68
2023/03/01 01:01:53;;;;;;;22.60;20.80;;;-0.90;99.90;;;;;;5054865;28;20470;-70
2023/03/01 01:04:22;;;;;;;23.13;21.03;;;-1.00;99.90;;;;;;5046857;28;20547;-69
2023/03/01 01:06:49;;;;;;;22.83;20.77;;;-1.10;99.90;;;;;;5049296;28;21020;-70
2023/03/01 01:09:17;;;;;;;23.20;21.17;;;-1.10;99.90;;;;;;5046594;28;20463;-68
2023/03/01 01:11:45;;;;;;;23.60;21.77;;;-1.20;99.90;;;;;;5055531;28;20474;-69
2023/03/01 01:14:12;;;;;;;23.63;21.73;;;-1.10;99.90;;;;;;5047313;28;20497;-68
2023/03/01 01:16:39;;;;;;;24.20;22.23;;;-1.20;99.90;;;;;;5049039;28;20847;-72
2023/03/01 01:19:07;;;;;;;23.77;21.87;;;-1.30;99.90;;;;;;5057666;28;20738;-73
2023/03/01 01:21:36;;;;;;;24.17;22.23;;;-1.50;99.90;;;;;;5053199;28;20953;-73
2023/03/01 01:24:04;;;;;;;23.07;21.13;;;-1.60;99.90;;;;;;5057076;28;20524;-73
2023/03/01 01:26:33;;;;;;;25.50;23.10;;;-1.70;99.90;;;;;;5056840;28;20505;-73
2023/03/01 01:29:01;;;;;;;24.27;22.27;;;-1.90;99.90;;;;;;5049059;28;20464;-73
2023/03/01 01:31:29;;;;;;;23.30;21.10;;;-2.00;99.90;;;;;;5060934;28;20799;-71
2023/03/01 01:33:57;;;;;;;24.70;22.43;;;-2.00;99.90;;;;;;5057723;28;20455;-71
2023/03/01 01:36:24;;;;;;;22.70;20.90;;;-2.10;99.90;;;;;;5053549;28;20475;-72
2023/03/01 01:38:53;;;;;;;24.27;22.00;;;-2.10;99.90;;;;;;5056557;28;20930;-72
2023/03/01 01:41:22;;;;;;;25.03;22.70;;;-2.10;99.90;;;;;;5047877;28;20803;-71
2023/03/01 01:43:50;;;;;;;23.10;21.10;;;-2.10;99.90;;;;;;5047257;28;20878;-72
2023/03/01 01:46:26;;;;;;;23.87;21.90;;;-2.20;99.90;;;;;;5053848;28;20942;-73
2023/03/01 01:48:58;;;;;;;24.17;21.97;;;-2.20;99.90;;;;;;5063647;28;20469;-73
2023/03/01 01:51:29;;;;;;;24.40;22.10;;;-2.30;99.90;;;;;;5048101;28;20460;-69
2023/03/01 01:54:01;;;;;;;23.80;21.80;;;-2.20;99.90;;;;;;5051005;28;20525;-73
2023/03/01 01:56:29;;;;;;;25.50;23.30;;;-2.20;99.90;;;;;;5046117;28;20479;-71
2023/03/01 01:58:57;;;;;;;30.10;23.57;;;-2.10;99.90;;;;;;5051946;28;20462;-71
2023/03/01 02:01:24;;;;;;;24.87;22.77;;;-2.00;99.90;;;;;;5046666;28;20467;-72
2023/03/01 02:03:51;;;;;;;24.50;22.33;;;-2.00;99.90;;;;;;5054330;28;21305;-71
2023/03/01 02:06:22;;;;;;;23.93;21.83;;;-2.00;99.90;;;;;;5056555;28;20477;-71
2023/03/01 02:08:52;;;;;;;24.20;21.83;;;-2.00;99.90;;;;;;5058197;28;20505;-72
2023/03/01 02:11:21;;;;;;;24.63;22.43;;;-2.00;99.90;;;;;;5055984;28;20673;-73
2023/03/01 02:13:48;;;;;;;23.87;21.70;;;-2.00;99.90;;;;;;5055640;28;20514;-73
2023/03/01 02:16:16;;;;;;;22.67;20.67;;;-2.00;99.90;;;;;;5043029;28;20469;-73
2023/03/01 02:18:45;;;;;;;24.47;22.30;;;-2.10;99.90;;;;;;5061562;28;20465;-72
2023/03/01 02:21:26;;;;;;;24.23;21.97;;;-2.10;99.90;;;;;;5058844;28;20834;-72
2023/03/01 02:23:55;;;;;;;24.60;22.20;;;-2.00;99.90;;;;;;5055356;28;20466;-71
2023/03/01 02:26:30;;;;;;;23.37;21.20;;;-2.10;99.90;;;;;;5049186;28;20921;-73
2023/03/01 02:28:59;;;;;;;23.97;21.60;;;-2.30;99.90;;;;;;5050886;28;20549;-72
2023/03/01 02:31:44;;;;;;;23.40;21.30;;;-2.40;99.90;;;;;;5053500;28;20493;-71
2023/03/01 02:34:13;;;;;;;23.90;21.80;;;-2.50;99.90;;;;;;5050539;28;20881;-73
2023/03/01 02:36:44;;;;;;;24.77;22.10;;;-2.40;99.90;;;;;;5055470;28;20458;-74
2023/03/01 02:39:17;;;;;;;29.43;21.83;;;-2.40;99.90;;;;;;5061356;28;21019;-73
2023/03/01 02:41:47;;;;;;;23.57;21.37;;;-2.30;99.90;;;;;;5056403;28;20552;-71
2023/03/01 02:44:15;;;;;;;23.93;21.70;;;-2.50;99.90;;;;;;5055616;28;20539;-72
2023/03/01 02:46:48;;;;;;;23.83;21.83;;;-2.60;99.90;;;;;;5047090;28;20494;-72
2023/03/01 02:49:24;;;;;;;22.57;20.53;;;-2.70;99.90;;;;;;5051551;28;20463;-73
2023/03/01 02:52:22;;;;;;;22.57;20.70;;;-2.80;99.90;;;;;;5053503;28;20982;-72
2023/03/01 02:54:53;;;;;;;23.83;21.53;;;-2.80;99.90;;;;;;5039810;28;20468;-73
2023/03/01 02:57:21;;;;;;;22.77;20.90;;;-2.80;99.90;;;;;;5054687;28;20463;-73
2023/03/01 02:59:52;;;;;;;24.23;21.87;;;-2.80;99.90;;;;;;5062882;28;20464;-72
2023/03/01 03:02:35;;;;;;;24.57;22.30;;;-2.70;99.90;;;;;;5055986;28;20466;-73
2023/03/01 03:05:05;;;;;;;23.47;21.27;;;-2.60;99.90;;;;;;5050911;28;20457;-71
2023/03/01 03:07:33;;;;;;;26.70;23.93;;;-2.60;99.90;;;;;;5049584;28;20860;-72
2023/03/01 03:09:59;;;;;;;24.47;22.07;;;-2.60;99.90;;;;;;5055866;28;20470;-73
2023/03/01 03:12:26;;;;;;;23.97;21.90;;;-2.50;99.90;;;;;;5054767;28;20750;-72
2023/03/01 03:14:54;;;;;;;25.13;22.73;;;-2.50;99.90;;;;;;5055863;28;20479;-71
2023/03/01 03:17:21;;;;;;;24.10;21.97;;;-2.50;99.90;;;;;;5053156;28;20481;-71
2023/03/01 03:19:48;;;;;;;24.60;22.30;;;-2.50;99.90;;;;;;5055193;28;20772;-73
2023/03/01 03:22:15;;;;;;;23.57;21.40;;;-2.60;99.90;;;;;;5058283;28;20551;-73
2023/03/01 03:24:42;;;;;;;25.57;23.13;;;-2.60;99.90;;;;;;5058031;28;20470;-71
2023/03/01 03:27:09;;;;;;;26.77;22.57;;;-2.60;99.90;;;;;;5051543;28;20485;-73
2023/03/01 03:29:36;;;;;;;25.47;23.03;;;-2.60;99.90;;;;;;5054593;28;20453;-73
2023/03/01 03:32:04;;;;;;;24.67;22.37;;;-2.60;99.90;;;;;;5051630;28;20462;-71
2023/03/01 03:34:31;;;;;;;26.13;23.30;;;-2.70;99.90;;;;;;5046735;28;20547;-72
2023/03/01 03:36:59;;;;;;;24.23;22.10;;;-2.70;99.90;;;;;;5052769;28;21363;-72
2023/03/01 03:39:26;;;;;;;25.20;22.80;;;-2.70;99.90;;;;;;5052258;28;20464;-72
2023/03/01 03:41:53;;;;;;;31.67;24.27;;;-2.80;99.90;;;;;;5056445;28;20520;-73
2023/03/01 03:44:20;;;;;;;26.33;23.93;;;-2.90;99.90;;;;;;5057279;28;20971;-71
2023/03/01 03:46:47;;;;;;;26.03;23.60;;;-3.00;99.90;;;;;;5060153;28;21063;-74
2023/03/01 03:49:15;;;;;;;26.37;23.87;;;-3.00;99.90;;;;;;5048890;28;20620;-72
2023/03/01 03:51:42;;;;;;;25.63;23.37;;;-3.10;99.90;;;;;;5061447;28;20460;-71
2023/03/01 03:54:10;;;;;;;26.57;23.80;;;-3.10;99.90;;;;;;5057599;28;20466;-72
2023/03/01 03:56:37;;;;;;;25.53;22.87;;;-3.20;99.90;;;;;;5056141;28;20465;-73
2023/03/01 03:59:05;;;;;;;27.13;24.53;;;-3.20;99.90;;;;;;5051875;28;20783;-71
2023/03/01 04:01:32;;;;;;;25.13;22.73;;;-3.10;99.90;;;;;;5060211;28;20495;-71
2023/03/01 04:04:03;;;;;;;26.83;24.17;;;-3.00;99.90;;;;;;5055569;28;20474;-72
2023/03/01 04:06:32;;;;;;;24.60;22.20;;;-3.00;99.90;;;;;;5053504;28;20650;-73
2023/03/01 04:09:00;;;;;;;24.87;22.43;;;-3.10;99.90;;;;;;5057472;28;20466;-71
2023/03/01 04:11:27;;;;;;;23.70;21.40;;;-3.10;99.90;;;;;;5059666;28;20848;-71
2023/03/01 04:13:55;;;;;;;28.43;22.10;;;-3.10;99.90;;;;;;5058264;28;20489;-71
2023/03/01 04:16:23;;;;;;;23.83;21.60;;;-3.00;99.90;;;;;;5051653;28;20475;-71
2023/03/01 04:18:50;;;;;;;23.73;21.73;;;-3.10;99.90;;;;;;5055967;28;20479;-71
2023/03/01 04:21:17;;;;;;;29.90;23.00;;;-3.10;99.90;;;;;;5049032;28;20542;-72
2023/03/01 04:23:45;;;;;;;24.90;22.40;;;-3.20;99.90;;;;;;5060405;28;20869;-72
2023/03/01 04:26:12;;;;;;;24.30;21.87;;;-3.00;99.90;;;;;;5052435;28;20497;-72
2023/03/01 04:28:42;;;;;;;26.77;23.40;;;-3.00;99.90;;;;;;5056700;28;20979;-71
2023/03/01 04:31:13;;;;;;;23.53;21.20;;;-3.10;99.90;;;;;;5049699;28;20455;-71
2023/03/01 04:33:41;;;;;;;24.63;22.30;;;-3.20;99.90;;;;;;5056858;28;20459;-72
2023/03/01 04:36:09;;;;;;;24.17;21.83;;;-3.20;99.90;;;;;;5046839;28;20980;-71
2023/03/01 04:38:37;;;;;;;23.67;21.23;;;-3.30;99.90;;;;;;5061785;28;20487;-70
2023/03/01 04:41:06;;;;;;;27.50;22.27;;;-3.30;99.90;;;;;;5054011;28;20568;-71
2023/03/01 04:43:34;;;;;;;24.47;21.97;;;-3.20;99.90;;;;;;5055317;28;20541;-69
2023/03/01 04:46:05;;;;;;;25.30;22.70;;;-3.10;99.90;;;;;;5045524;28;20643;-72
2023/03/01 04:48:33;;;;;;;24.97;22.50;;;-3.00;99.90;;;;;;5048155;28;22340;-70
2023/03/01 04:51:01;;;;;;;25.50;23.20;;;-3.00;99.90;;;;;;5053771;28;20471;-70
2023/03/01 04:53:28;;;;;;;25.17;22.80;;;-2.90;99.90;;;;;;5060942;28;20817;-71
2023/03/01 04:55:56;;;;;;;26.90;24.00;;;-3.00;99.90;;;;;;5055344;28;20562;-70
2023/03/01 04:58:25;;;;;;;27.20;23.40;;;-3.00;99.90;;;;;;5054149;28;20681;-72
2023/03/01 05:00:52;;;;;;;25.27;22.83;;;-2.90;99.90;;;;;;5059405;28;20607;-71
2023/03/01 05:03:19;;;;;;;25.77;23.07;;;-2.90;99.90;;;;;;5051511;28;20536;-70
2023/03/01 05:05:48;;;;;;;24.17;22.03;;;-3.00;99.90;;;;;;5063758;28;20451;-72
2023/03/01 05:08:18;;;;;;;26.23;23.70;;;-3.00;99.90;;;;;;5050008;28;20486;-71
2023/03/01 05:10:46;;;;;;;25.97;23.30;;;-2.90;99.90;;;;;;5051618;28;20463;-73
2023/03/01 05:13:19;;;;;;;27.67;24.77;;;-2.90;99.90;;;;;;5056512;28;20890;-74
2023/03/01 05:15:48;;;;;;;26.47;24.07;;;-2.90;99.90;;;;;;5055017;28;20486;-72
2023/03/01 05:18:15;;;;;;;27.47;23.60;;;-3.00;99.90;;;;;;5058011;28;20875;-73
2023/03/01 05:20:42;;;;;;;25.90;23.40;;;-3.00;99.90;;;;;;5064073;28;20870;-72
2023/03/01 05:23:09;;;;;;;36.23;23.93;;;-3.00;99.90;;;;;;5055201;28;20472;-71
2023/03/01 05:25:39;;;;;;;26.63;23.60;;;-3.00;99.90;;;;;;5053319;28;20467;-72
2023/03/01 05:28:07;;;;;;;26.30;23.53;;;-2.90;99.90;;;;;;5055563;28;20569;-73
2023/03/01 05:30:34;;;;;;;24.90;22.30;;;-2.90;99.90;;;;;;5055837;28;20460;-72
2023/03/01 05:33:03;;;;;;;28.47;24.00;;;-2.90;99.90;;;;;;5057040;28;20957;-74
2023/03/01 05:35:32;;;;;;;26.57;23.97;;;-2.90;99.90;;;;;;5061453;28;20493;-72
2023/03/01 05:38:00;;;;;;;25.37;23.00;;;-2.90;99.90;;;;;;5056523;28;20468;-72
2023/03/01 05:40:27;;;;;;;26.40;23.70;;;-2.80;99.90;;;;;;5053368;28;20496;-74
2023/03/01 05:42:55;;;;;;;27.47;23.43;;;-2.90;99.90;;;;;;5051840;28;21258;-73
2023/03/01 05:45:24;;;;;;;27.97;24.93;;;-2.90;99.90;;;;;;5054092;28;20474;-72
2023/03/01 05:47:52;;;;;;;24.97;22.70;;;-2.90;99.90;;;;;;5052927;28;20600;-73
2023/03/01 05:50:22;;;;;;;24.10;21.90;;;-2.90;99.90;;;;;;5059858;28;21011;-74
2023/03/01 05:52:51;;;;;;;25.23;22.73;;;-2.90;99.90;;;;;;5056822;28;20459;-73
2023/03/01 05:55:19;;;;;;;25.33;22.83;;;-2.90;99.90;;;;;;5053595;28;20463;-72
2023/03/01 05:57:46;;;;;;;26.30;23.57;;;-2.90;99.90;;;;;;5049465;28;20472;-71
2023/03/01 06:00:15;;;;;;;25.30;22.73;;;-2.90;99.90;;;;;;5059085;28;20467;-72
2023/03/01 06:02:42;;;;;;;24.70;22.03;;;-3.00;99.90;;;;;;5052744;28;20810;-72
2023/03/01 06:05:11;;;;;;;24.67;22.37;;;-3.00;99.90;;;;;;5054211;28;20459;-73
2023/03/01 06:07:39;;;;;;;25.53;22.70;;;-3.00;99.90;;;;;;5053878;28;20495;-72
2023/03/01 06:10:08;;;;;;;26.60;22.83;;;-3.10;99.90;;;;;;5057272;28;20474;-74
2023/03/01 06:12:36;;;;;;;27.10;21.97;;;-3.10;99.90;;;;;;5054518;28;20469;-73
2023/03/01 06:15:04;;;;;;;25.70;23.07;;;-3.20;99.90;;;;;;5048641;28;20476;-71
2023/03/01 06:17:32;;;;;;;30.87;25.27;;;-3.20;99.90;;;;;;5061420;28;20462;-72
2023/03/01 06:19:59;;;;;;;24.77;22.47;;;-3.20;99.90;;;;;;5055991;28;20469;-72
2023/03/01 06:22:25;;;;;;;28.03;23.50;;;-3.10;99.90;;;;;;5050853;28;20575;-72
2023/03/01 06:24:54;;;;;;;30.90;24.83;;;-3.10;99.90;;;;;;5055398;28;20989;-73
2023/03/01 06:27:21;;;;;;;26.27;23.57;;;-3.20;99.90;;;;;;5049259;28;20566;-72
2023/03/01 06:29:48;;;;;;;26.80;24.30;;;-3.20;99.90;;;;;;5056803;28;20469;-71
2023/03/01 06:32:15;;;;;;;27.90;23.60;;;-3.20;99.90;;;;;;5057076;28;20466;-74
2023/03/01 06:34:42;;;;;;;27.43;24.90;;;-3.20;99.90;;;;;;5055517;28;20463;-73
2023/03/01 06:37:09;;;;;;;26.50;23.83;;;-3.10;99.90;;;;;;5048626;28;20894;-70
2023/03/01 06:39:36;;;;;;;25.60;23.30;;;-3.10;99.90;;;;;;5056265;28;20783;-72
2023/03/01 06:42:04;;;;;;;32.37;25.97;;;-3.10;99.90;;;;;;5058735;28;20656;-73
2023/03/01 06:44:31;;;;;;;27.17;24.57;;;-3.20;99.90;;;;;;5056239;28;20824;-72
2023/03/01 06:46:59;;;;;;;28.70;25.80;;;-3.10;99.90;;;;;;5058902;28;20481;-73
2023/03/01 06:49:26;;;;;;;31.43;24.90;;;-3.00;99.90;;;;;;5051374;28;20472;-73
2023/03/01 06:51:53;;;;;;;27.50;24.57;;;-3.00;99.90;;;;;;5057792;28;20561;-73
2023/03/01 06:54:22;;;;;;;26.60;24.07;;;-2.90;99.90;;;;;;5061536;28;20459;-71
2023/03/01 06:56:49;;;;;;;27.37;24.80;;;-3.00;99.90;;;;;;5059092;28;20461;-73
2023/03/01 06:59:19;;;;;;;27.77;24.77;;;-3.00;99.90;;;;;;5053591;28;20463;-72
2023/03/01 07:01:46;;;;;;;30.37;27.23;;;-3.00;99.90;;;;;;5058497;28;20473;-71
2023/03/01 07:04:14;;;;;;;28.07;25.37;;;-3.00;99.90;;;;;;5050601;28;20950;-71
2023/03/01 07:06:42;;;;;;;33.83;24.67;;;-2.90;99.90;;;;;;5055098;28;20471;-74
2023/03/01 07:09:09;;;;;;;33.40;27.90;;;-2.90;99.90;;;;;;5053071;28;20486;-73
2023/03/01 07:11:36;;;;;;;28.30;25.27;;;-2.90;99.90;;;;;;5054006;28;20496;-73
2023/03/01 07:14:03;;;;;;;31.17;25.50;;;-2.80;99.90;;;;;;5061789;28;21323;-71
2023/03/01 07:16:31;;;;;;;26.77;24.10;;;-2.80;99.90;;;;;;5066418;28;20462;-73
2023/03/01 07:18:59;;;;;;;27.90;23.70;;;-2.70;99.90;;;;;;5061927;28;20456;-72
2023/03/01 07:21:25;;;;;;;29.23;26.27;;;-2.60;99.90;;;;;;5063016;28;20462;-71
2023/03/01 07:23:52;;;;;;;29.30;25.00;;;-2.60;99.90;;;;;;5060236;28;20466;-72
2023/03/01 07:26:19;;;;;;;26.90;24.10;;;-2.50;99.90;;;;;;5064097;28;20962;-74
2023/03/01 07:28:46;;;;;;;27.70;24.73;;;-2.40;99.90;;;;;;5058687;28;20855;-71
2023/03/01 07:31:13;;;;;;;31.00;26.33;;;-2.40;99.90;;;;;;5061503;28;20468;-71
2023/03/01 07:33:42;;;;;;;27.43;24.67;;;-2.30;99.90;;;;;;5065440;28;20468;-73
2023/03/01 07:36:10;;;;;;;32.50;26.57;;;-2.20;99.90;;;;;;5060609;28;20853;-73
2023/03/01 07:38:37;;;;;;;31.00;25.13;;;-2.10;99.90;;;;;;5062957;28;20458;-72
2023/03/01 07:41:05;;;;;;;30.80;27.20;;;-2.00;99.90;;;;;;5070821;28;20484;-73
2023/03/01 07:43:32;;;;;;;29.27;26.33;;;-1.90;99.90;;;;;;5059953;28;20477;-73
2023/03/01 07:46:00;;;;;;;29.20;26.10;;;-1.90;99.90;;;;;;5057222;28;20460;-71
2023/03/01 07:48:28;;;;;;;33.50;26.60;;;-1.90;99.90;;;;;;5043157;28;20600;-74
2023/03/01 07:50:59;;;;;;;34.53;26.67;;;-1.80;99.90;;;;;;5056342;28;20464;-72
2023/03/01 07:53:26;;;;;;;31.60;28.23;;;-1.80;99.90;;;;;;5063327;28;20526;-73
2023/03/01 07:56:02;;;;;;;29.13;26.03;;;-1.70;99.90;;;;;;5062537;28;20774;-71
2023/03/01 07:58:29;;;;;;;29.40;26.33;;;-1.60;99.90;;;;;;5064540;28;20461;-73
2023/03/01 08:00:56;;;;;;;34.63;26.00;;;-1.60;99.90;;;;;;5056911;28;20964;-72
2023/03/01 08:03:24;;;;;;;29.40;26.33;;;-1.60;99.90;;;;;;5053521;28;20461;-72
2023/03/01 08:05:51;;;;;;;33.80;27.53;;;-1.40;99.90;;;;;;5060852;28;20472;-73
2023/03/01 08:08:20;;;;;;;30.97;27.90;;;-1.30;99.90;;;;;;5067608;28;20522;-71
2023/03/01 08:10:47;;;;;;;31.57;28.37;;;-1.20;99.90;;;;;;5063157;28;20546;-72
2023/03/01 08:13:14;;;;;;;32.50;28.83;;;-1.20;99.90;;;;;;5054307;28;20815;-73
2023/03/01 08:15:41;;;;;;;35.37;30.57;;;-1.10;99.90;;;;;;5059794;28;20475;-72
2023/03/01 08:18:08;;;;;;;32.23;29.13;;;-0.90;99.90;;;;;;5057511;28;20462;-72
2023/03/01 08:20:35;;;;;;;30.03;26.83;;;-0.90;99.90;;;;;;5060147;28;21169;-71
2023/03/01 08:23:02;;;;;;;31.57;28.27;;;-0.80;99.90;;;;;;5060677;28;20462;-73
2023/03/01 08:25:30;;;;;;;37.20;28.83;;;-0.80;99.90;;;;;;5052972;28;20465;-73
2023/03/01 08:27:57;;;;;;;33.70;30.07;;;-0.60;99.90;;;;;;5055739;28;20523;-73
2023/03/01 08:30:24;;;;;;;33.17;29.73;;;-0.50;99.90;;;;;;5057751;28;20496;-71
2023/03/01 08:32:51;;;;;;;32.47;28.97;;;-0.40;99.90;;;;;;5063419;28;20495;-73
2023/03/01 08:35:20;;;;;;;33.37;30.13;;;-0.30;99.90;;;;;;5051238;28;20454;-73
2023/03/01 08:37:47;;;;;;;33.33;29.70;;;-0.20;99.90;;;;;;5056904;28;20579;-72
2023/03/01 08:40:14;;;;;;;36.90;33.20;;;-0.20;99.90;;;;;;5054029;28;20446;-73
2023/03/01 08:42:43;;;;;;;32.63;29.43;;;-0.10;99.90;;;;;;5059231;28;20570;-73
2023/03/01 08:45:12;;;;;;;44.53;30.20;;;0.00;99.90;;;;;;5052695;28;20660;-74
2023/03/01 08:47:39;;;;;;;31.73;28.60;;;0.20;99.90;;;;;;5061970;28;20504;-73
2023/03/01 08:50:08;;;;;;;31.00;26.67;;;0.20;99.90;;;;;;5060898;28;20497;-73
2023/03/01 08:52:35;;;;;;;31.93;28.27;;;0.30;99.90;;;;;;5051672;28;20471;-73
2023/03/01 08:55:02;;;;;;;33.30;29.70;;;0.40;99.90;;;;;;5059516;28;20468;-74
2023/03/01 08:57:29;;;;;;;33.47;30.00;;;0.50;99.90;;;;;;5062307;28;20459;-72
2023/03/01 08:59:57;;;;;;;36.53;29.00;;;0.70;99.90;;;;;;5063513;28;20505;-73
2023/03/01 09:02:24;;;;;;;32.53;29.33;;;0.80;99.90;;;;;;5046049;28;20474;-72
2023/03/01 09:04:51;;;;;;;34.90;31.03;;;0.80;99.90;;;;;;5052963;28;20482;-72
2023/03/01 09:07:17;;;;;;;32.43;29.23;;;1.00;99.90;;;;;;5041490;28;20463;-74
2023/03/01 09:09:44;;;;;;;33.10;29.80;;;1.00;99.90;;;;;;5060765;28;20474;-73
2023/03/01 09:12:11;;;;;;;34.33;30.50;;;1.10;99.90;;;;;;5051311;28;20505;-72
2023/03/01 09:14:38;;;;;;;31.23;28.03;;;1.10;99.90;;;;;;5055097;28;20490;-71
2023/03/01 09:17:08;;;;;;;28.47;25.70;;;1.30;99.90;;;;;;5056505;28;20568;-72
2023/03/01 09:19:35;;;;;;;30.10;27.20;;;1.40;99.90;;;;;;5043410;28;20961;-73
2023/03/01 09:22:05;;;;;;;32.20;29.20;;;1.50;99.90;;;;;;5040864;28;22243;-72
2023/03/01 09:24:31;;;;;;;32.53;28.87;;;1.60;99.90;;;;;;5046520;28;21229;-71
2023/03/01 09:26:59;;;;;;;28.60;25.90;;;1.70;99.90;;;;;;5054238;28;20807;-73
2023/03/01 09:29:26;;;;;;;32.37;28.10;;;1.80;99.90;;;;;;5057035;28;20509;-74
2023/03/01 09:31:54;;;;;;;30.80;27.80;;;1.80;99.90;;;;;;5048828;28;20859;-72
2023/03/01 09:34:24;;;;;;;32.43;29.23;;;1.90;99.90;;;;;;5048700;28;20459;-72
2023/03/01 09:36:51;;;;;;;33.00;29.60;;;2.00;99.90;;;;;;5051727;28;21041;-73
2023/03/01 09:39:18;;;;;;;31.37;27.77;;;2.00;99.90;;;;;;5047243;28;20562;-72
2023/03/01 09:41:49;;;;;;;31.40;28.60;;;2.20;99.90;;;;;;5056258;28;21084;-71
2023/03/01 09:44:31;;;;;;;36.33;31.40;;;2.40;99.90;;;;;;5057479;28;20463;-73
2023/03/01 09:47:00;;;;;;;32.77;29.37;;;2.50;99.90;;;;;;5054618;28;20561;-71
2023/03/01 09:49:30;;;;;;;33.63;28.90;;;2.50;99.90;;;;;;5057371;28;20498;-73
2023/03/01 09:52:00;;;;;;;36.07;29.80;;;2.60;99.90;;;;;;5058052;28;20546;-72
2023/03/01 09:54:28;;;;;;;32.30;28.93;;;2.70;99.90;;;;;;5047171;28;20456;-71
2023/03/01 09:57:12;;;;;;;36.57;29.77;;;2.70;99.90;;;;;;5059135;28;20467;-72
2023/03/01 09:59:57;;;;;;;32.53;29.20;;;2.80;99.90;;;;;;5049647;28;20464;-72
2023/03/01 10:02:31;;;;;;;32.83;29.73;;;2.90;99.90;;;;;;5055940;28;20475;-71
2023/03/01 10:05:10;;;;;;;33.53;30.07;;;3.00;99.90;;;;;;5049340;28;20467;-71
2023/03/01 10:07:48;;;;;;;33.13;29.73;;;3.10;99.90;;;;;;5051015;28;20484;-71
2023/03/01 10:10:27;;;;;;;37.20;30.50;;;3.40;99.90;;;;;;5053144;28;21031;-71
2023/03/01 10:12:54;;;;;;;33.60;30.13;;;3.60;99.90;;;;;;5056521;28;20841;-72
2023/03/01 10:15:29;;;;;;;35.70;31.90;;;3.50;99.90;;;;;;5047448;28;20904;-71
2023/03/01 10:17:58;;;;;;;32.83;29.50;;;3.80;99.90;;;;;;5053777;28;20460;-71
2023/03/01 10:20:34;;;;;;;31.83;28.53;;;4.20;99.90;;;;;;5047727;28;20467;-73
2023/03/01 10:23:01;;;;;;;32.77;29.63;;;4.50;99.90;;;;;;5045740;28;20463;-71
2023/03/01 10:25:44;;;;;;;32.47;29.17;;;4.90;99.90;;;;;;5053526;28;20972;-71
2023/03/01 10:28:17;;;;;;;32.37;29.30;;;5.60;99.90;;;;;;5053813;28;20501;-72
2023/03/01 10:30:45;;;;;;;39.40;29.47;;;5.30;99.90;;;;;;5049758;28;20585;-72
2023/03/01 10:33:18;;;;;;;32.23;29.13;;;5.70;99.90;;;;;;5048572;28;20927;-72
2023/03/01 10:35:47;;;;;;;31.50;28.33;;;6.20;99.90;;;;;;5059625;28;20465;-71
2023/03/01 10:38:14;;;;;;;31.57;28.80;;;6.70;99.90;;;;;;5053330;28;20463;-74
2023/03/01 10:40:52;;;;;;;30.37;27.60;;;6.70;99.90;;;;;;5053089;28;20837;-73
2023/03/01 10:43:20;;;;;;;30.17;27.20;;;7.10;99.90;;;;;;5053858;28;20473;-71
2023/03/01 10:45:48;;;;;;;29.63;27.07;;;7.40;99.90;;;;;;5051951;28;20803;-73
2023/03/01 10:48:17;;;;;;;30.00;27.17;;;8.00;99.90;;;;;;5057890;28;20493;-72
2023/03/01 10:50:47;;;;;;;30.00;27.13;;;8.50;99.00;;;;;;5051715;28;20463;-71
2023/03/01 10:53:33;;;;;;;31.30;28.17;;;8.10;96.40;;;;;;5046322;28;20711;-72
2023/03/01 10:56:06;;;;;;;29.37;26.77;;;8.70;97.20;;;;;;5051723;28;20455;-74
2023/03/01 10:58:34;;;;;;;28.47;26.17;;;8.80;94.50;;;;;;5046603;28;20496;-73
2023/03/01 11:01:02;;;;;;;29.83;27.37;;;9.30;91.90;;;;;;5049572;28;20468;-72
2023/03/01 11:03:32;;;;;;;29.10;26.47;;;9.90;90.60;;;;;;5047136;28;20590;-72
2023/03/01 11:06:06;;;;;;;30.20;27.63;;;9.30;86.50;;;;;;5054276;28;20467;-72
2023/03/01 11:08:39;;;;;;;29.97;27.50;;;9.30;88.90;;;;;;5052029;28;20614;-74
2023/03/01 11:11:26;;;;;;;28.80;26.60;;;9.10;90.00;;;;;;5052869;28;20474;-72
2023/03/01 11:13:56;;;;;;;28.33;26.13;;;9.70;89.10;;;;;;5047641;28;20489;-72
2023/03/01 11:16:30;;;;;;;29.63;27.00;;;10.00;86.90;;;;;;5052580;28;20455;-72
2023/03/01 11:18:58;;;;;;;28.67;26.17;;;9.60;88.00;;;;;;5046934;28;20932;-72
2023/03/01 11:21:29;;;;;;;29.13;26.73;;;9.90;86.70;;;;;;5056819;28;20466;-72
2023/03/01 11:23:59;;;;;;;29.40;27.00;;;9.70;80.70;;;;;;5053841;28;20470;-69
2023/03/01 11:26:26;;;;;;;29.90;27.50;;;10.20;80.40;;;;;;5052565;28;20462;-70
2023/03/01 11:28:58;;;;;;;28.83;26.23;;;10.10;77.90;;;;;;5051098;28;20487;-70
2023/03/01 11:31:26;;;;;;;28.83;26.47;;;10.10;75.60;;;;;;5054152;28;20559;-72
2023/03/01 11:33:58;;;;;;;29.33;27.07;;;10.30;77.00;;;;;;5057713;28;20871;-74
2023/03/01 11:36:33;;;;;;;29.20;26.70;;;11.10;76.70;;;;;;5057238;28;20462;-72
2023/03/01 11:39:06;;;;;;;29.53;26.90;;;11.20;72.30;;;;;;5052944;28;20462;-71
2023/03/01 11:41:37;;;;;;;27.87;25.77;;;10.80;71.70;;;;;;5053420;28;20489;-70
2023/03/01 11:44:11;;;;;;;29.67;27.30;;;10.70;68.80;;;;;;5053822;28;20507;-73
2023/03/01 11:47:05;;;;;;;29.63;27.03;;;10.30;68.50;;;;;;5053904;28;20473;-73
2023/03/01 11:50:02;;;;;;;28.07;25.97;;;10.50;67.40;;;;;;5049112;28;20537;-71
2023/03/01 11:52:41;;;;;;;28.27;25.70;;;10.10;65.30;;;;;;5050405;28;20463;-72
2023/03/01 11:55:25;;;;;;;37.33;25.50;;;10.40;68.90;;;;;;5051205;28;20470;-73
2023/03/01 11:58:15;;;;;;;27.27;25.07;;;10.50;66.80;;;;;;5054177;28;20467;-72
2023/03/01 12:01:01;;;;;;;28.20;25.90;;;9.90;66.80;;;;;;5057463;28;20464;-74
2023/03/01 12:03:34;;;;;;;28.53;26.23;;;10.50;64.60;;;;;;5057973;28;20976;-72
2023/03/01 12:06:40;;;;;;;28.00;25.60;;;11.20;66.00;;;;;;5057052;28;20467;-70
2023/03/01 12:09:19;;;;;;;27.60;25.47;;;11.70;64.40;;;;;;5039429;28;20500;-72
2023/03/01 12:12:02;;;;;;;28.53;26.10;;;12.00;63.90;;;;;;5060308;28;20478;-73
2023/03/01 12:14:45;;;;;;;29.27;26.43;;;11.60;60.20;;;;;;5058005;28;20486;-72
2023/03/01 12:17:31;;;;;;;28.30;26.00;;;12.00;59.90;;;;;;5051173;28;20474;-72
2023/03/01 12:20:19;;;;;;;28.90;26.67;;;11.70;58.20;;;;;;5056343;28;20459;-74
2023/03/01 12:23:02;;;;;;;27.70;25.60;;;11.30;58.80;;;;;;5051008;28;20474;-72
2023/03/01 12:25:37;;;;;;;28.90;26.50;;;11.40;58.70;;;;;;5051067;28;20528;-72
2023/03/01 12:28:36;;;;;;;28.47;26.00;;;11.90;58.50;;;;;;5057122;28;20545;-72
2023/03/01 12:31:29;;;;;;;29.00;26.53;;;11.60;58.20;;;;;;5059318;28;20946;-74
2023/03/01 12:34:06;;;;;;;27.03;24.63;;;11.40;58.50;;;;;;5057903;28;20464;-74
2023/03/01 12:36:58;;;;;;;29.57;27.07;;;11.50;58.50;;;;;;5062617;28;20454;-73
2023/03/01 12:39:38;;;;;;;29.83;27.10;;;12.00;57.50;;;;;;5047563;28;20486;-73
2023/03/01 12:42:17;;;;;;;29.20;26.80;;;11.10;57.40;;;;;;5058880;28;20479;-71